Time;durP1;ratioP1;P1;durP2;ratioP2;P2;SDS_P1;SDS_P2;PMS_P1;PMS_P2;Temp;Humidity;BMP_temperature;BMP_pressure;BME280_temperature;BME280_humidity;BME280_pressure;Samples;Min_cycle;Max_cycle;Signal;HPM_P1;HPM_P2
2022/12/27 00:02:23;;;;;;;6.78;1.95;;;4.00;99.90;;;-144.05;68.62;125687.94;5016531;28;20033;-85
2022/12/27 00:04:49;;;;;;;5.00;1.70;;;4.00;99.90;;;-144.05;68.94;125687.94;5034579;28;20072;-83
2022/12/27 00:07:15;;;;;;;7.55;1.65;;;4.00;99.90;;;-144.05;69.03;125687.94;5016776;28;20034;-84
2022/12/27 00:09:41;;;;;;;13.50;2.00;;;4.10;99.90;;;-144.05;69.40;125687.94;5016459;28;20083;-85
2022/12/27 00:12:07;;;;;;;9.25;2.15;;;4.10;99.90;;;-144.05;69.53;125687.94;5034027;28;20025;-84
2022/12/27 00:14:33;;;;;;;5.70;2.00;;;3.90;99.90;;;-144.05;69.80;125687.94;5016541;28;20026;-83
2022/12/27 00:16:59;;;;;;;11.70;1.77;;;3.90;99.90;;;-144.05;69.55;125687.94;5016535;28;20030;-87
2022/12/27 00:19:25;;;;;;;6.88;2.35;;;3.80;99.90;;;-144.05;70.29;125687.94;5016480;28;20079;-85
2022/12/27 00:21:51;;;;;;;7.07;1.92;;;3.90;99.90;;;-144.05;69.87;125687.94;5016224;28;20083;-85
2022/12/27 00:24:17;;;;;;;11.45;2.15;;;3.90;99.90;;;-144.05;69.98;125687.94;5016147;28;20038;-84
2022/12/27 00:26:43;;;;;;;8.82;1.90;;;3.90;99.90;;;-144.05;70.31;125687.94;5016381;28;20029;-85
2022/12/27 00:29:09;;;;;;;7.65;2.42;;;4.00;99.90;;;-144.05;70.55;125687.94;5016197;28;20065;-85
2022/12/27 00:31:36;;;;;;;8.45;2.17;;;4.00;99.90;;;-144.05;69.97;125687.94;5017976;28;20033;-86
2022/12/27 00:34:05;;;;;;;9.65;2.25;;;4.00;99.90;;;-144.05;70.16;125687.94;5034439;28;20478;-84
2022/12/27 00:36:32;;;;;;;9.93;2.22;;;4.00;99.90;;;-144.05;70.14;125687.94;5015939;28;20025;-83
2022/12/27 00:38:59;;;;;;;6.53;2.17;;;3.90;99.90;;;-144.05;70.38;125687.94;5016215;28;20041;-85
2022/12/27 00:41:26;;;;;;;8.00;2.22;;;3.90;99.90;;;-144.05;70.78;125687.94;5033809;28;20543;-83
2022/12/27 00:43:52;;;;;;;10.77;1.90;;;3.90;99.90;;;-144.05;70.66;125687.94;5015887;28;20080;-85
2022/12/27 00:46:18;;;;;;;4.00;1.98;;;4.00;99.90;;;-144.05;71.00;125687.94;5015509;28;20072;-85
2022/12/27 00:48:44;;;;;;;7.70;2.67;;;4.20;99.90;;;-144.05;70.42;125687.94;5015131;28;20474;-84
2022/12/27 00:51:18;;;;;;;9.68;2.70;;;4.10;99.90;;;-144.05;70.91;125687.94;5015085;28;20371;-85
2022/12/27 00:53:45;;;;;;;9.20;1.83;;;4.10;99.90;;;-144.05;71.26;125687.94;5015540;28;20116;-84
2022/12/27 00:56:18;;;;;;;7.25;2.30;;;4.00;99.90;;;-144.05;71.05;125687.94;5015681;28;20053;-84
2022/12/27 00:58:44;;;;;;;5.85;2.45;;;4.00;99.90;;;-144.05;70.71;125687.94;5015009;28;20033;-84
2022/12/27 01:01:16;;;;;;;8.77;2.83;;;4.00;99.90;;;-144.05;71.27;125687.94;5032823;28;20040;-84
2022/12/27 01:03:43;;;;;;;8.05;3.15;;;3.90;99.90;;;-144.05;71.38;125687.94;5015069;28;20123;-83
2022/12/27 01:06:18;;;;;;;10.15;2.30;;;3.90;99.90;;;-144.05;71.62;125687.94;5015235;28;20069;-85
2022/12/27 01:08:45;;;;;;;6.25;2.10;;;4.10;99.90;;;-144.05;71.58;125687.94;5014628;28;20036;-82
2022/12/27 01:11:14;;;;;;;9.48;1.90;;;4.00;99.90;;;-144.05;71.50;125687.94;5014823;28;20029;-84
2022/12/27 01:13:41;;;;;;;6.57;2.17;;;3.90;99.90;;;-144.05;71.94;125687.94;5014868;28;20164;-82
2022/12/27 01:16:22;;;;;;;13.40;2.30;;;3.90;99.90;;;-144.05;72.50;125687.94;5014785;28;20113;-86
2022/12/27 01:18:48;;;;;;;7.85;2.38;;;4.00;99.90;;;-144.05;72.28;125687.94;5014575;28;20118;-83
2022/12/27 01:21:19;;;;;;;8.25;2.30;;;4.10;99.90;;;-144.05;71.99;125687.94;5014943;28;20025;-83
2022/12/27 01:23:46;;;;;;;8.02;2.63;;;4.10;99.90;;;-144.05;72.16;125687.94;5015079;28;20086;-84
2022/12/27 01:26:21;;;;;;;14.88;2.78;;;4.20;99.90;;;-144.05;72.18;125687.94;5014933;28;20029;-84
2022/12/27 01:28:49;;;;;;;10.73;2.42;;;4.30;99.90;;;-144.05;71.57;125687.94;5014421;28;20033;-83
2022/12/27 01:31:27;;;;;;;10.13;2.58;;;4.10;99.90;;;-144.05;72.17;125687.94;5014484;28;20053;-85
2022/12/27 01:33:59;;;;;;;8.43;2.63;;;4.10;99.90;;;-144.05;72.28;125687.94;5032314;28;20029;-83
2022/12/27 01:36:29;;;;;;;14.73;3.10;;;4.10;99.90;;;-144.05;72.14;125687.94;5014618;28;20025;-84
2022/12/27 01:38:55;;;;;;;12.40;2.13;;;4.20;99.90;;;-144.05;71.90;125687.94;5015230;28;20033;-84
2022/12/27 01:44:47;;;;;;;5.80;1.73;;;4.10;99.90;;;-144.05;72.84;125687.94;5039568;28;20079;-80
2022/12/27 01:48:02;;;;;;;9.18;2.47;;;4.10;99.90;;;-144.05;73.25;125687.94;5014351;28;20037;-84
2022/12/27 01:50:35;;;;;;;6.32;1.98;;;4.20;99.90;;;-144.05;72.48;125687.94;5032291;28;20033;-84
2022/12/27 01:53:26;;;;;;;17.83;2.65;;;4.20;99.90;;;-144.05;72.43;125687.94;5014418;28;20053;-85
2022/12/27 01:56:22;;;;;;;15.98;3.30;;;4.20;99.90;;;-144.05;72.68;125687.94;5014249;28;20037;-84
2022/12/27 01:59:06;;;;;;;10.98;2.72;;;4.20;99.90;;;-144.05;72.73;125687.94;5031685;28;20045;-83
2022/12/27 02:01:39;;;;;;;14.02;2.45;;;4.10;99.90;;;-144.05;72.73;125687.94;5013941;28;20482;-82
2022/12/27 02:04:22;;;;;;;6.97;2.72;;;4.10;99.90;;;-144.05;73.18;125687.94;5014108;28;20100;-84
2022/12/27 02:06:50;;;;;;;7.70;2.25;;;4.20;99.90;;;-144.05;72.96;125687.94;5014372;28;20417;-84
2022/12/27 02:09:36;;;;;;;11.80;2.33;;;4.20;99.90;;;-144.05;72.99;125687.94;5013811;28;20179;-84
2022/12/27 02:12:07;;;;;;;8.75;2.42;;;4.20;99.90;;;-144.05;73.13;125687.94;5013966;28;20022;-83
2022/12/27 02:14:43;;;;;;;5.50;2.38;;;4.10;99.90;;;-144.05;73.14;125687.94;5013970;28;20053;-81
2022/12/27 02:17:27;;;;;;;7.47;2.20;;;4.10;99.90;;;-144.05;73.75;125687.94;5014307;28;20051;-83
2022/12/27 02:20:21;;;;;;;11.93;2.10;;;4.00;99.90;;;-144.05;73.50;125687.94;5013964;28;20032;-81
2022/12/27 02:24:05;;;;;;;13.45;2.85;;;4.00;99.90;;;-144.05;73.72;125687.94;5014068;28;20021;-84
2022/12/27 02:27:14;;;;;;;7.68;2.58;;;4.00;99.90;;;-144.05;74.22;125687.94;5013706;28;20075;-84
2022/12/27 02:30:00;;;;;;;8.13;2.30;;;4.10;99.90;;;-144.05;74.59;125687.94;5003239;28;20147;-85
2022/12/27 02:33:27;;;;;;;8.70;2.72;;;4.10;99.90;;;-144.05;73.72;125687.94;5016113;28;20405;-82
2022/12/27 02:36:15;;;;;;;7.88;2.58;;;4.30;99.90;;;-144.05;73.62;125687.94;4936123;29;20047;-83
2022/12/27 02:38:54;;;;;;;5.53;2.33;;;4.00;99.90;;;-144.05;74.85;125687.94;5014770;28;20069;-83
2022/12/27 02:53:02;;;;;;;7.43;2.10;;;4.20;99.90;;;-144.05;75.19;125687.94;5036466;28;20031;-82
2022/12/27 02:59:36;;;;;;;11.48;3.40;;;4.20;99.90;;;-144.05;75.25;125687.94;5034989;28;20410;-83
2022/12/27 03:16:21;;;;;;;10.95;3.22;;;4.20;99.90;;;-144.05;74.86;125687.94;5020718;28;20562;-82
2022/12/27 03:33:11;;;;;;;8.57;2.67;;;4.40;99.90;;;-144.05;75.72;125687.94;5034303;28;20079;-83
2022/12/27 03:33:24;;;;;;;22.10;3.75;;;4.40;99.90;;;-144.05;75.52;125687.94;5034327;28;20048;-84
2022/12/27 03:39:35;;;;;;;20.88;3.03;;;4.40;99.90;;;-144.05;75.05;125687.94;5038513;28;20055;-84
2022/12/27 03:45:01;;;;;;;10.60;3.53;;;4.30;99.90;;;-144.05;75.70;125687.94;5058468;28;20059;-80
2022/12/27 03:47:51;;;;;;;11.23;2.97;;;4.30;99.90;;;-144.05;75.53;125687.94;5020637;28;20120;-82
2022/12/27 03:50:40;;;;;;;13.52;2.92;;;4.30;99.90;;;-144.05;76.67;125687.94;5015742;28;20029;-83
2022/12/27 03:53:27;;;;;;;6.55;2.80;;;4.30;99.90;;;-144.05;76.44;125687.94;5016245;28;20036;-82
2022/12/27 03:55:53;;;;;;;11.55;3.97;;;4.40;99.90;;;-144.05;76.24;125687.94;5016117;28;20047;-82
2022/12/27 03:58:19;;;;;;;7.60;2.70;;;4.40;99.90;;;-144.05;75.99;125687.94;5015596;28;20486;-82
2022/12/27 04:00:45;;;;;;;9.98;2.92;;;4.30;99.90;;;-144.05;76.23;125687.94;5015895;28;20121;-83
2022/12/27 04:03:11;;;;;;;13.40;3.28;;;4.40;99.90;;;-144.05;76.17;125687.94;5015874;28;20116;-84
2022/12/27 04:05:37;;;;;;;12.18;3.15;;;4.30;99.90;;;-144.05;76.43;125687.94;5016001;28;20047;-82
2022/12/27 04:35:28;;;;;;;10.38;2.97;;;4.40;99.90;;;-144.05;76.62;125687.94;5033456;28;20103;-82
2022/12/27 04:37:54;;;;;;;12.15;2.58;;;4.40;99.90;;;-144.05;76.89;125687.94;5015456;28;20478;-82
2022/12/27 04:57:05;;;;;;;10.52;2.90;;;4.40;99.90;;;-144.05;75.44;125687.94;5034465;28;20111;-83
2022/12/27 05:02:18;;;;;;;9.95;2.25;;;4.50;99.90;;;-144.05;75.32;125687.94;5032684;28;20059;-83
2022/12/27 05:04:47;;;;;;;4.97;2.05;;;4.50;99.90;;;-144.05;75.46;125687.94;5014630;28;20122;-82
2022/12/27 05:15:33;;;;;;;8.52;1.73;;;4.30;99.90;;;-144.05;75.61;125687.94;5032602;28;20040;-82
2022/12/27 05:17:59;;;;;;;6.85;2.28;;;4.50;99.90;;;-144.05;75.21;125687.94;5014548;28;20393;-81
2022/12/27 05:20:25;;;;;;;9.20;2.20;;;4.50;99.90;;;-144.05;75.88;125687.94;5014288;28;20025;-83
2022/12/27 05:25:42;;;;;;;12.50;2.00;;;4.60;99.90;;;-144.05;74.95;125687.94;5032461;28;20119;-83
2022/12/27 05:28:11;;;;;;;14.35;3.33;;;4.70;99.90;;;-144.05;74.53;125687.94;5014069;28;20056;-83
2022/12/27 05:30:41;;;;;;;6.72;2.20;;;4.70;99.90;;;-144.05;74.48;125687.94;5014456;28;20536;-82
2022/12/27 05:33:07;;;;;;;7.88;2.15;;;4.70;99.90;;;-144.05;75.27;125687.94;5014267;28;20064;-82
2022/12/27 05:35:34;;;;;;;8.70;2.22;;;4.70;99.90;;;-144.05;75.25;125687.94;5014517;28;20033;-82
2022/12/27 05:38:01;;;;;;;10.20;2.75;;;5.10;99.90;;;-144.05;75.35;125687.94;5013960;28;20052;-81
2022/12/27 05:40:27;;;;;;;13.63;2.75;;;4.80;99.90;;;-144.05;74.90;125687.94;5014240;28;20029;-85
2022/12/27 05:42:53;;;;;;;11.20;2.40;;;4.90;99.90;;;-144.05;74.36;125687.94;5014563;28;20037;-83
2022/12/27 05:45:20;;;;;;;9.40;2.67;;;5.00;99.90;;;-144.05;73.93;125687.94;5018688;28;20036;-81
2022/12/27 05:47:45;;;;;;;11.70;2.95;;;4.80;99.90;;;-144.05;75.43;125687.94;5039157;28;20025;-82
2022/12/27 05:50:11;;;;;;;7.50;3.17;;;4.80;99.90;;;-144.05;74.93;125687.94;5017756;28;20042;-81
2022/12/27 05:52:38;;;;;;;6.20;3.22;;;4.80;99.90;;;-144.05;74.53;125687.94;5014619;28;20029;-82
2022/12/27 05:55:06;;;;;;;13.13;3.25;;;4.90;99.90;;;-144.05;74.40;125687.94;5015311;28;20064;-84
2022/12/27 05:57:32;;;;;;;12.27;3.30;;;4.90;99.90;;;-144.05;74.35;125687.94;5030614;28;20021;-81
2022/12/27 05:59:59;;;;;;;10.68;3.47;;;4.90;99.90;;;-144.05;75.08;125687.94;5014085;28;20029;-83
2022/12/27 06:02:24;;;;;;;9.57;3.53;;;4.90;99.90;;;-144.05;74.69;125687.94;5013724;28;20025;-83
2022/12/27 06:04:50;;;;;;;9.27;3.38;;;5.00;99.90;;;-144.05;75.01;125687.94;5013937;28;20409;-83
2022/12/27 06:07:16;;;;;;;17.48;4.20;;;4.90;99.90;;;-144.05;74.71;125687.94;5031075;28;20420;-82
2022/12/27 06:09:42;;;;;;;10.23;3.83;;;4.90;99.90;;;-144.05;74.85;125687.94;5013511;28;20033;-81
2022/12/27 06:12:08;;;;;;;10.02;4.53;;;4.90;99.90;;;-144.05;75.13;125687.94;5013603;28;20036;-82
2022/12/27 06:14:34;;;;;;;13.48;5.25;;;5.00;99.90;;;-144.05;75.26;125687.94;5013677;28;20032;-82
2022/12/27 06:17:00;;;;;;;12.18;4.22;;;5.10;99.90;;;-144.05;75.25;125687.94;5013654;28;20034;-83
2022/12/27 06:19:26;;;;;;;11.52;4.22;;;5.00;99.90;;;-144.05;74.24;125687.94;5013356;28;20056;-82
2022/12/27 06:21:52;;;;;;;13.50;4.53;;;5.20;99.90;;;-144.05;74.30;125687.94;5013509;28;20126;-84
2022/12/27 06:24:17;;;;;;;10.40;4.18;;;5.10;99.90;;;-144.05;74.18;125687.94;5013706;28;20030;-82
2022/12/27 06:26:44;;;;;;;12.95;5.05;;;5.20;99.90;;;-144.05;73.96;125687.94;5014111;28;20481;-82
2022/12/27 06:29:11;;;;;;;9.45;4.97;;;5.30;99.90;;;-144.05;74.12;125687.94;5013316;28;20414;-84
2022/12/27 06:31:38;;;;;;;13.80;5.15;;;5.00;99.90;;;-144.05;74.79;125687.94;5015724;28;20124;-84
2022/12/27 06:34:04;;;;;;;13.93;4.97;;;5.10;99.90;;;-144.05;74.49;125687.94;5018392;28;20512;-84
2022/12/27 06:36:31;;;;;;;12.82;4.55;;;5.10;99.90;;;-144.05;74.24;125687.94;5018961;28;20029;-82
2022/12/27 06:38:58;;;;;;;16.23;5.88;;;5.10;99.90;;;-144.05;74.05;125687.94;5035821;28;20037;-83
2022/12/27 06:41:25;;;;;;;11.77;4.43;;;5.10;99.90;;;-144.05;74.01;125687.94;5029449;28;20120;-82
2022/12/27 06:43:57;;;;;;;10.27;4.55;;;5.20;99.90;;;-144.05;73.61;125687.94;5018554;28;20040;-82
2022/12/27 06:46:23;;;;;;;9.00;4.30;;;5.10;99.90;;;-144.05;74.68;125687.94;5017444;28;20034;-83
2022/12/27 06:48:50;;;;;;;10.00;4.28;;;5.10;99.90;;;-144.05;74.52;125687.94;5016364;28;20035;-82
2022/12/27 06:51:20;;;;;;;12.32;4.15;;;5.10;99.90;;;-144.05;74.34;125687.94;5016793;28;20033;-84
2022/12/27 06:53:47;;;;;;;15.55;4.53;;;5.00;99.90;;;-144.05;74.46;125687.94;5016512;28;20025;-80
2022/12/27 06:56:20;;;;;;;16.45;4.68;;;4.90;99.90;;;-144.05;75.06;125687.94;5016363;28;20091;-82
2022/12/27 06:58:49;;;;;;;17.00;5.10;;;4.80;99.90;;;-144.05;75.28;125687.94;5016582;28;20117;-82
2022/12/27 07:01:27;;;;;;;9.82;5.07;;;4.80;99.90;;;-144.05;74.73;125687.94;5034460;28;20536;-82
2022/12/27 07:04:00;;;;;;;14.50;5.35;;;4.90;99.90;;;-144.05;75.13;125687.94;5016435;28;20558;-82
2022/12/27 07:06:30;;;;;;;13.07;5.80;;;4.80;99.90;;;-144.05;75.32;125687.94;5016444;28;20140;-84
2022/12/27 07:09:00;;;;;;;11.85;5.82;;;4.80;99.90;;;-144.05;75.10;125687.94;5032368;28;20113;-84
2022/12/27 07:11:26;;;;;;;15.70;5.40;;;4.90;99.90;;;-144.05;75.53;125687.94;5033867;28;20029;-82
2022/12/27 07:13:54;;;;;;;14.55;5.75;;;4.90;99.90;;;-144.05;75.80;125687.94;5015725;28;20112;-81
2022/12/27 07:16:28;;;;;;;15.50;5.13;;;4.90;99.90;;;-144.05;75.97;125687.94;5033752;28;20021;-79
2022/12/27 07:18:58;;;;;;;14.40;6.22;;;4.80;99.90;;;-144.05;75.88;125687.94;5035801;28;20029;-81
2022/12/27 07:21:27;;;;;;;12.30;5.07;;;4.90;99.90;;;-144.05;75.97;125687.94;5020937;28;20082;-83
2022/12/27 07:23:54;;;;;;;9.52;4.88;;;4.80;99.90;;;-144.05;75.70;125687.94;5020681;28;20124;-83
2022/12/27 07:26:28;;;;;;;18.40;6.78;;;4.70;99.90;;;-144.05;76.59;125687.94;5020661;28;20045;-82
2022/12/27 07:29:00;;;;;;;13.80;6.70;;;4.70;99.90;;;-144.05;76.59;125687.94;5020636;28;20048;-82
2022/12/27 07:31:31;;;;;;;12.23;6.03;;;4.70;99.90;;;-144.05;76.39;125687.94;5020405;28;20056;-84
2022/12/27 07:34:01;;;;;;;19.52;6.40;;;4.70;99.90;;;-144.05;75.87;125687.94;5020902;28;20029;-80
2022/12/27 07:36:38;;;;;;;12.85;6.53;;;4.80;99.90;;;-144.05;76.40;125687.94;5021333;28;20110;-84
2022/12/27 07:39:07;;;;;;;13.70;6.70;;;4.80;99.90;;;-144.05;76.52;125687.94;5038383;28;20029;-82
2022/12/27 07:41:34;;;;;;;13.20;6.30;;;4.90;99.90;;;-144.05;75.99;125687.94;5020781;28;20485;-84
2022/12/27 07:44:02;;;;;;;19.95;6.63;;;4.90;99.90;;;-144.05;76.04;125687.94;5020679;28;20111;-83
2022/12/27 07:46:28;;;;;;;12.90;6.07;;;4.90;99.90;;;-144.05;76.27;125687.94;5019332;28;20030;-86
2022/12/27 07:48:57;;;;;;;12.90;6.25;;;4.80;99.90;;;-144.05;76.13;125687.94;5036041;28;20029;-81
2022/12/27 07:51:25;;;;;;;10.32;4.88;;;4.90;99.90;;;-144.05;75.83;125687.94;5031050;28;20033;-84
2022/12/27 07:53:53;;;;;;;14.90;4.68;;;4.90;99.90;;;-144.05;75.48;125687.94;5020389;28;20055;-81
2022/12/27 07:56:25;;;;;;;9.45;4.20;;;4.80;99.90;;;-144.05;76.06;125687.94;5020990;28;20040;-82
2022/12/27 07:58:53;;;;;;;11.10;4.55;;;4.80;99.90;;;-144.05;76.14;125687.94;5020345;28;20037;-83
2022/12/27 08:01:22;;;;;;;14.05;4.55;;;4.80;99.90;;;-144.05;75.75;125687.94;5019917;28;20029;-82
2022/12/27 08:03:49;;;;;;;17.05;5.43;;;4.70;99.90;;;-144.05;76.44;125687.94;5019580;28;20120;-83
2022/12/27 08:06:19;;;;;;;9.25;3.85;;;4.70;99.90;;;-144.05;76.89;125687.94;5019887;28;20037;-84
2022/12/27 08:08:46;;;;;;;14.43;3.95;;;4.70;99.90;;;-144.05;77.04;125687.94;5021377;28;20040;-84
2022/12/27 08:11:12;;;;;;;15.57;4.28;;;4.70;99.90;;;-144.05;76.23;125687.94;5022453;28;20029;-84
2022/12/27 08:13:37;;;;;;;11.48;3.70;;;4.70;99.90;;;-144.05;75.94;125687.94;5029082;28;20032;-84
2022/12/27 08:16:05;;;;;;;10.90;3.63;;;4.60;99.90;;;-144.05;76.91;125687.94;5028921;28;20049;-82
2022/12/27 08:18:31;;;;;;;8.10;3.47;;;4.60;99.90;;;-144.05;76.31;125687.94;5019746;28;20041;-82
2022/12/27 08:20:56;;;;;;;12.15;3.47;;;4.60;99.90;;;-144.05;76.61;125687.94;5018870;28;20033;-83
2022/12/27 08:23:22;;;;;;;9.05;2.65;;;4.70;99.90;;;-144.05;76.41;125687.94;5019721;28;20037;-82
2022/12/27 08:25:48;;;;;;;17.20;4.57;;;4.70;99.90;;;-144.05;76.92;125687.94;5019938;28;20531;-83
2022/12/27 08:28:17;;;;;;;9.88;2.53;;;4.70;99.90;;;-144.05;76.85;125687.94;5018462;28;20095;-82
2022/12/27 08:30:45;;;;;;;11.93;2.70;;;4.80;99.90;;;-144.05;76.02;125687.94;5037077;28;20026;-83
2022/12/27 08:33:13;;;;;;;11.30;2.88;;;4.80;99.90;;;-144.05;76.54;125687.94;5017481;28;20029;-83
2022/12/27 08:35:43;;;;;;;11.30;2.70;;;4.90;99.90;;;-144.05;76.33;125687.94;5016565;28;20022;-82
2022/12/27 08:38:09;;;;;;;16.35;3.00;;;5.00;99.90;;;-144.05;76.04;125687.94;5016168;28;20452;-83
2022/12/27 08:40:41;;;;;;;11.27;3.35;;;5.00;99.90;;;-144.05;76.30;125687.94;5015930;28;20060;-84
2022/12/27 08:43:09;;;;;;;11.40;3.03;;;5.00;99.90;;;-144.05;75.95;125687.94;5017002;28;20455;-83
2022/12/27 08:45:37;;;;;;;18.40;3.40;;;4.90;99.90;;;-144.05;75.96;125687.94;5015985;28;20037;-82
2022/12/27 08:48:04;;;;;;;10.50;2.95;;;5.00;99.90;;;-144.05;76.33;125687.94;5015259;28;20037;-82
2022/12/27 08:50:31;;;;;;;14.23;2.78;;;5.10;99.90;;;-144.05;75.83;125687.94;5016139;28;20037;-84
2022/12/27 08:53:01;;;;;;;8.07;2.88;;;5.10;99.90;;;-144.05;75.89;125687.94;5016584;28;20057;-86
2022/12/27 08:55:29;;;;;;;11.32;3.13;;;5.20;99.90;;;-144.05;75.36;125687.94;5017415;28;20397;-85
2022/12/27 08:58:03;;;;;;;12.27;3.03;;;5.20;99.90;;;-144.05;75.29;125687.94;5020411;28;20477;-84
2022/12/27 09:00:31;;;;;;;7.20;2.80;;;5.30;99.90;;;-144.05;74.83;125687.94;5019257;28;20029;-84
2022/12/27 09:02:58;;;;;;;11.60;2.95;;;5.20;99.90;;;-144.05;75.12;125687.94;5019655;28;20428;-82
2022/12/27 09:05:26;;;;;;;14.77;3.95;;;5.20;99.90;;;-144.05;75.59;125687.94;5019297;28;20037;-84
2022/12/27 09:07:53;;;;;;;8.07;2.95;;;5.20;99.90;;;-144.05;75.84;125687.94;5018037;28;20029;-84
2022/12/27 09:10:22;;;;;;;10.48;3.53;;;5.20;99.90;;;-144.05;75.38;125687.94;5017685;28;20104;-85
2022/12/27 09:12:48;;;;;;;10.95;3.28;;;5.40;99.90;;;-144.05;75.05;125687.94;5017554;28;20029;-84
2022/12/27 09:15:14;;;;;;;11.77;2.72;;;5.30;99.90;;;-144.05;74.91;125687.94;5015403;28;20025;-83
2022/12/27 09:17:41;;;;;;;9.80;2.92;;;5.30;99.90;;;-144.05;75.18;125687.94;5015379;28;20056;-85
2022/12/27 09:20:08;;;;;;;6.50;2.80;;;5.40;99.90;;;-144.05;74.96;125687.94;5016819;28;20041;-87
2022/12/27 09:22:34;;;;;;;14.75;3.15;;;5.40;99.90;;;-144.05;74.68;125687.94;5015114;28;20116;-86
2022/12/27 09:25:00;;;;;;;6.63;2.58;;;5.60;99.90;;;-144.05;74.05;125687.94;5016340;28;20026;-86
2022/12/27 09:27:26;;;;;;;12.95;2.67;;;5.70;99.90;;;-144.05;73.63;125687.94;5015039;28;20033;-84
2022/12/27 09:29:51;;;;;;;9.30;2.88;;;5.70;99.90;;;-144.05;72.93;125687.94;5015674;28;20057;-83
2022/12/27 09:32:17;;;;;;;12.98;3.42;;;5.80;99.90;;;-144.05;73.45;125687.94;5015922;28;20156;-84
2022/12/27 09:34:43;;;;;;;7.78;2.83;;;5.80;99.90;;;-144.05;73.33;125687.94;5015837;28;20535;-85
2022/12/27 09:37:10;;;;;;;7.03;2.47;;;5.80;99.90;;;-144.05;72.14;125687.94;5033229;28;20041;-86
2022/12/27 09:39:36;;;;;;;8.73;2.30;;;5.90;99.90;;;-144.05;72.03;125687.94;5015314;28;20040;-83
2022/12/27 09:42:35;;;;;;;12.30;2.38;;;6.00;99.90;;;-144.05;71.92;125687.94;5032508;28;20036;-83
2022/12/27 09:45:44;;;;;;;9.00;2.22;;;6.10;99.90;;;-144.05;72.23;125687.94;5015646;28;20084;-84
2022/12/27 09:48:37;;;;;;;7.32;2.78;;;6.10;99.90;;;-144.05;72.14;125687.94;5004492;28;20033;-76
2022/12/27 09:51:39;;;;;;;11.23;2.55;;;6.30;99.90;;;-144.05;70.34;125687.94;5038165;28;20193;-84
2022/12/27 09:54:20;;;;;;;7.40;2.28;;;6.50;99.90;;;-144.05;69.80;125687.94;5010422;28;20065;-85
2022/12/27 09:56:47;;;;;;;4.72;2.30;;;6.70;99.90;;;-144.05;69.60;125687.94;5014758;28;20481;-86
2022/12/27 09:59:30;;;;;;;8.38;2.38;;;6.70;99.90;;;-144.05;68.99;125687.94;5014653;28;20033;-84
2022/12/27 10:01:58;;;;;;;6.72;2.30;;;6.90;99.90;;;-144.05;67.92;125687.94;5015013;28;20433;-81
2022/12/27 10:04:24;;;;;;;11.85;2.65;;;7.00;99.90;;;-144.05;68.03;125687.94;5014378;28;20029;-85
2022/12/27 10:06:49;;;;;;;8.32;2.38;;;7.10;99.90;;;-144.05;67.58;125687.94;5033224;28;20104;-84
2022/12/27 10:09:38;;;;;;;8.70;2.20;;;7.10;99.90;;;-144.05;67.78;125687.94;5014217;28;20354;-83
2022/12/27 10:12:38;;;;;;;7.95;2.17;;;7.10;99.90;;;-144.05;67.90;125687.94;5015293;28;20502;-84
2022/12/27 10:15:45;;;;;;;8.55;2.58;;;7.20;99.90;;;-144.05;67.83;125687.94;5015564;28;20022;-84
2022/12/27 10:18:43;;;;;;;9.50;2.30;;;7.10;99.90;;;-144.05;68.29;125687.94;5033122;28;20036;-84
2022/12/27 10:21:24;;;;;;;8.07;2.30;;;7.10;99.90;;;-144.05;68.13;125687.94;5015753;28;20037;-84
2022/12/27 10:24:24;;;;;;;12.05;2.65;;;7.10;99.90;;;-144.05;68.67;125687.94;5015376;28;20022;-84
2022/12/27 10:26:54;;;;;;;16.67;3.10;;;7.10;99.90;;;-144.05;68.37;125687.94;5015256;28;20091;-84
2022/12/27 10:29:24;;;;;;;8.77;1.98;;;7.00;99.90;;;-144.05;68.92;125687.94;5016529;28;20504;-83
2022/12/27 10:31:51;;;;;;;11.32;2.40;;;6.90;99.90;;;-144.05;69.21;125687.94;5034232;28;20029;-84
2022/12/27 10:34:23;;;;;;;9.80;3.10;;;6.90;99.90;;;-144.05;68.67;125687.94;5017787;28;20030;-83
2022/12/27 10:36:52;;;;;;;6.32;2.20;;;7.10;99.90;;;-144.05;68.42;125687.94;5035120;28;20029;-84
2022/12/27 10:39:26;;;;;;;11.18;2.45;;;7.20;99.90;;;-144.05;67.64;125687.94;5016497;28;20120;-83
2022/12/27 10:42:32;;;;;;;9.00;2.25;;;7.40;99.90;;;-144.05;67.22;125687.94;5016486;28;20037;-83
2022/12/27 10:45:38;;;;;;;8.55;1.90;;;7.40;99.90;;;-144.05;65.80;125687.94;5016963;28;20072;-79
2022/12/27 10:48:30;;;;;;;9.65;2.38;;;7.60;99.90;;;-144.05;66.39;125687.94;5017082;28;20128;-85
2022/12/27 10:51:08;;;;;;;13.85;2.05;;;7.50;99.90;;;-144.05;66.58;125687.94;5030680;28;20502;-81
2022/12/27 10:54:00;;;;;;;4.30;1.75;;;7.50;99.90;;;-144.05;66.22;125687.94;5020704;28;20041;-83
2022/12/27 10:56:31;;;;;;;8.98;1.88;;;7.60;99.90;;;-144.05;66.07;125687.94;5038445;28;20025;-83
2022/12/27 10:59:26;;;;;;;9.82;2.13;;;7.60;99.90;;;-144.05;65.62;125687.94;5037907;28;20420;-82
2022/12/27 11:02:01;;;;;;;11.32;2.28;;;7.80;99.90;;;-144.05;65.53;125687.94;5020220;28;20063;-80
2022/12/27 11:04:29;;;;;;;9.13;2.10;;;8.00;99.90;;;-144.05;65.02;125687.94;5021166;28;20492;-83
2022/12/27 11:06:58;;;;;;;7.82;1.92;;;8.20;99.90;;;-144.05;64.15;125687.94;5021522;28;20029;-84
2022/12/27 11:09:43;;;;;;;9.45;1.80;;;8.30;99.90;;;-144.05;63.70;125687.94;5019890;28;20021;-82
2022/12/27 11:12:24;;;;;;;8.23;1.65;;;8.40;99.90;;;-144.05;64.21;125687.94;5020080;28;20393;-82
2022/12/27 11:15:12;;;;;;;11.10;2.95;;;8.30;99.90;;;-144.05;63.55;125687.94;5019790;28;20033;-80
2022/12/27 11:17:57;;;;;;;7.47;2.30;;;8.20;99.90;;;-144.05;65.50;125687.94;5019347;28;20095;-83
2022/12/27 11:20:32;;;;;;;9.88;2.08;;;7.80;99.90;;;-144.05;65.33;125687.94;5019547;28;20482;-82
2022/12/27 11:23:09;;;;;;;11.57;2.00;;;7.70;99.90;;;-144.05;65.49;125687.94;5019857;28;20037;-84
2022/12/27 11:25:57;;;;;;;10.60;2.60;;;7.80;99.90;;;-144.05;65.38;125687.94;5020075;28;20033;-83
2022/12/27 11:28:41;;;;;;;6.28;1.88;;;7.90;99.90;;;-144.05;64.61;125687.94;5019460;28;20115;-86
2022/12/27 11:31:14;;;;;;;11.75;2.38;;;7.70;99.90;;;-144.05;65.06;125687.94;5019617;28;20127;-83
2022/12/27 11:33:52;;;;;;;8.70;2.28;;;7.60;99.90;;;-144.05;65.87;125687.94;5021088;28;20021;-84
2022/12/27 11:36:43;;;;;;;6.47;2.00;;;7.50;99.90;;;-144.05;67.05;125687.94;5037004;28;20059;-84
2022/12/27 11:39:41;;;;;;;6.65;1.90;;;7.30;99.90;;;-144.05;67.29;125687.94;5037415;28;20063;-82
2022/12/27 11:42:41;;;;;;;5.40;2.45;;;7.40;99.90;;;-144.05;66.66;125687.94;5019968;28;20033;-85
2022/12/27 11:45:44;;;;;;;7.75;2.20;;;7.60;99.90;;;-144.05;65.91;125687.94;5038190;28;20148;-83
2022/12/27 11:48:33;;;;;;;8.02;2.15;;;7.90;99.90;;;-144.05;64.42;125687.94;5019477;28;20026;-88
2022/12/27 11:51:17;;;;;;;8.40;1.88;;;8.20;99.90;;;-144.05;64.18;125687.94;5041880;28;20022;-80
2022/12/27 11:54:00;;;;;;;9.77;2.17;;;8.20;99.90;;;-144.05;64.38;125687.94;5021338;28;20389;-85
2022/12/27 11:56:33;;;;;;;10.13;2.15;;;8.20;99.90;;;-144.05;64.06;125687.94;5038116;28;20051;-85
2022/12/27 11:59:24;;;;;;;9.90;2.00;;;8.30;99.90;;;-144.05;64.14;125687.94;5038509;28;20025;-85
2022/12/27 12:02:41;;;;;;;11.57;3.05;;;8.30;99.90;;;-144.05;63.23;125687.94;5021050;28;20025;-85
2022/12/27 12:05:44;;;;;;;;;;;8.40;99.90;;;-144.05;62.87;125687.94;5037803;28;20064;-84
2022/12/27 12:08:38;;;;;;;6.88;2.47;;;8.40;99.90;;;-144.05;63.02;125687.94;5019639;28;19960;-84
2022/12/27 12:11:47;;;;;;;10.13;2.42;;;8.20;99.90;;;-144.05;65.11;125687.94;5020222;28;20025;-84
2022/12/27 12:14:59;;;;;;;7.65;1.60;;;7.90;99.90;;;-144.05;65.45;125687.94;5019857;28;20060;-84
2022/12/27 12:17:49;;;;;;;9.65;2.42;;;7.90;99.90;;;-144.05;64.78;125687.94;5019985;28;20045;-86
2022/12/27 12:21:33;;;;;;;13.38;2.20;;;8.10;99.90;;;-144.05;64.91;125687.94;5021300;28;20028;-84
2022/12/27 12:25:02;;;;;;;6.50;2.20;;;8.00;99.90;;;-144.05;65.90;125687.94;4995596;28;20033;-82